Time;durP1;ratioP1;P1;durP2;ratioP2;P2;SDS_P1;SDS_P2;PMS_P1;PMS_P2;Temp;Humidity;BMP_temperature;BMP_pressure;BME280_temperature;BME280_humidity;BME280_pressure;Samples;Min_cycle;Max_cycle;Signal;HPM_P1;HPM_P2
2022/03/20 00:01:07;;;;;;;14.15;6.30;;;;;;;6.19;55.80;103353.78;7396895;19;20029;-66
2022/03/20 00:03:36;;;;;;;10.27;6.03;;;;;;;6.26;55.85;103357.38;7396134;19;20344;-67
2022/03/20 00:06:08;;;;;;;11.52;6.90;;;;;;;6.20;55.53;103335.63;7397862;19;20044;-66
2022/03/20 00:08:37;;;;;;;11.82;7.18;;;;;;;6.16;55.61;103345.94;7399506;19;20015;-67
2022/03/20 00:11:06;;;;;;;13.07;7.70;;;;;;;6.13;55.63;103335.47;7398630;19;20018;-66
2022/03/20 00:13:34;;;;;;;16.55;8.35;;;;;;;6.15;55.66;103339.88;7395610;19;20352;-67
2022/03/20 00:16:05;;;;;;;13.60;8.88;;;;;;;6.25;55.08;103330.47;7395845;19;20022;-58
2022/03/20 00:18:34;;;;;;;14.52;8.60;;;;;;;6.21;55.65;103326.06;7395337;19;20011;-60
2022/03/20 00:21:03;;;;;;;14.13;8.18;;;;;;;6.16;55.70;103325.09;7389914;19;20127;-59
2022/03/20 00:23:35;;;;;;;14.38;8.02;;;;;;;6.08;55.76;103327.59;7390650;19;20019;-59
2022/03/20 00:26:05;;;;;;;13.95;8.95;;;;;;;6.01;56.15;103329.22;7390043;19;20022;-59
2022/03/20 00:28:35;;;;;;;13.82;8.98;;;;;;;5.92;56.53;103316.06;7390756;19;20023;-58
2022/03/20 00:31:04;;;;;;;15.40;8.98;;;;;;;5.95;56.27;103315.25;7390337;19;20470;-59
2022/03/20 00:33:32;;;;;;;16.45;9.25;;;;;;;5.94;56.34;103313.47;7391457;19;20022;-60
2022/03/20 00:36:01;;;;;;;15.55;9.73;;;;;;;5.87;56.49;103304.69;7390665;19;20471;-59
2022/03/20 00:38:30;;;;;;;17.45;10.95;;;;;;;5.92;56.28;103294.34;7390861;19;20010;-59
2022/03/20 00:41:01;;;;;;;14.60;10.20;;;;;;;5.83;56.71;103301.19;7394341;19;20399;-58
2022/03/20 00:43:30;;;;;;;15.82;10.00;;;;;;;5.88;56.70;103298.66;7393504;19;20010;-60
2022/03/20 00:45:59;;;;;;;16.50;10.70;;;;;;;5.80;56.90;103295.03;7390178;19;20011;-61
2022/03/20 00:48:28;;;;;;;15.95;10.77;;;;;;;5.65;57.28;103293.94;7391352;19;20018;-59
2022/03/20 00:51:03;;;;;;;19.38;11.20;;;;;;;5.66;57.18;103289.59;7389490;19;20002;-58
2022/03/20 00:53:32;;;;;;;17.88;11.65;;;;;;;5.70;57.17;103276.69;7391412;19;20392;-61
2022/03/20 00:56:04;;;;;;;18.88;11.18;;;;;;;5.64;57.15;103270.50;7390941;19;20019;-62
2022/03/20 00:58:33;;;;;;;18.65;11.43;;;;;;;5.60;57.46;103276.50;7393207;19;20467;-59
2022/03/20 01:01:02;;;;;;;21.83;12.07;;;;;;;5.54;57.56;103267.78;7393193;19;20015;-58
2022/03/20 01:03:31;;;;;;;19.48;11.75;;;;;;;5.51;57.74;103267.69;7394619;19;20071;-60
2022/03/20 01:06:00;;;;;;;19.25;12.52;;;;;;;5.54;57.75;103259.09;7394341;19;20038;-61
2022/03/20 01:08:30;;;;;;;22.98;12.27;;;;;;;5.54;57.26;103259.97;7402737;19;20015;-56
2022/03/20 01:10:59;;;;;;;17.48;12.65;;;;;;;5.72;57.25;103255.91;7403438;19;20038;-59
2022/03/20 01:13:31;;;;;;;19.63;12.70;;;;;;;5.66;57.07;103255.78;7392529;19;20039;-61
2022/03/20 01:16:00;;;;;;;19.40;12.98;;;;;;;5.43;57.97;103263.22;7388169;19;20011;-59
2022/03/20 01:18:29;;;;;;;17.88;11.88;;;;;;;5.35;58.14;103260.50;7388119;19;20025;-59
2022/03/20 01:20:58;;;;;;;18.73;11.98;;;;;;;5.37;58.49;103257.09;7389325;19;20015;-61
2022/03/20 01:23:27;;;;;;;19.52;12.38;;;;;;;5.23;58.70;103247.28;7389896;19;20064;-60
2022/03/20 01:25:56;;;;;;;17.83;12.63;;;;;;;5.20;58.63;103245.50;7390398;19;20014;-60
2022/03/20 01:28:26;;;;;;;20.90;12.02;;;;;;;5.03;59.41;103253.03;7392933;19;20023;-56
2022/03/20 01:30:58;;;;;;;19.38;12.45;;;;;;;4.85;60.32;103241.44;7393005;19;20007;-57
2022/03/20 01:33:27;;;;;;;20.40;12.10;;;;;;;4.75;60.77;103251.63;7393087;19;20022;-57
2022/03/20 01:35:55;;;;;;;19.60;12.27;;;;;;;4.73;61.08;103236.00;7392086;19;20114;-59
2022/03/20 01:38:25;;;;;;;17.95;11.52;;;;;;;4.79;61.12;103225.72;7393289;19;20022;-60
2022/03/20 01:40:54;;;;;;;19.08;12.50;;;;;;;4.62;61.79;103227.13;7392363;19;20011;-58
2022/03/20 01:43:23;;;;;;;17.20;11.23;;;;;;;4.61;62.34;103215.88;7392957;19;20034;-61
2022/03/20 01:45:52;;;;;;;17.90;11.60;;;;;;;4.61;62.70;103208.09;7392418;19;20074;-57
2022/03/20 01:48:23;;;;;;;18.33;11.35;;;;;;;4.64;62.73;103210.75;7392635;19;20148;-57
2022/03/20 01:50:53;;;;;;;18.17;10.70;;;;;;;4.64;62.98;103202.06;7391510;19;20014;-57
2022/03/20 01:53:22;;;;;;;14.60;9.82;;;;;;;4.67;63.10;103200.41;7393362;19;20090;-59
2022/03/20 01:55:53;;;;;;;14.20;10.38;;;;;;;4.60;63.78;103195.06;7390753;19;20030;-57
2022/03/20 01:58:22;;;;;;;18.02;10.50;;;;;;;4.58;64.20;103189.84;7391946;19;20010;-55
2022/03/20 02:00:51;;;;;;;15.73;10.05;;;;;;;4.67;64.31;103179.63;7391083;19;20015;-60
2022/03/20 02:03:23;;;;;;;14.23;9.15;;;;;;;4.68;64.32;103186.59;7391431;19;20019;-60
2022/03/20 02:05:52;;;;;;;14.80;9.40;;;;;;;4.68;64.53;103171.00;7395384;19;20351;-57
2022/03/20 02:08:25;;;;;;;16.55;9.70;;;;;;;4.60;64.98;103171.69;7401870;19;20486;-58
2022/03/20 02:10:54;;;;;;;15.95;9.52;;;;;;;4.57;65.30;103169.03;7400511;19;20014;-58
2022/03/20 02:13:26;;;;;;;18.25;9.55;;;;;;;4.63;65.46;103174.38;7399194;19;20028;-59
2022/03/20 02:15:55;;;;;;;15.32;9.90;;;;;;;4.50;65.91;103162.88;7393718;19;20030;-56
2022/03/20 02:18:26;;;;;;;16.33;8.95;;;;;;;4.49;66.30;103161.97;7391040;19;20022;-59
2022/03/20 02:20:57;;;;;;;15.18;8.88;;;;;;;4.49;66.34;103161.97;7390798;19;20013;-60
2022/03/20 02:23:30;;;;;;;13.48;9.20;;;;;;;4.49;66.68;103156.78;7391571;19;20022;-59
2022/03/20 02:26:00;;;;;;;19.08;9.73;;;;;;;4.48;66.65;103144.69;7388257;19;20047;-60
2022/03/20 02:28:29;;;;;;;16.30;9.60;;;;;;;4.40;66.96;103151.44;7391013;19;20399;-58
2022/03/20 02:30:58;;;;;;;13.50;9.40;;;;;;;4.45;67.20;103135.94;7397658;19;20022;-58
2022/03/20 02:33:29;;;;;;;16.02;9.57;;;;;;;4.46;66.89;103138.56;7398079;19;20020;-59
2022/03/20 02:35:58;;;;;;;17.70;9.02;;;;;;;4.39;67.44;103131.50;7395544;19;20030;-61
2022/03/20 02:38:30;;;;;;;15.32;8.93;;;;;;;4.37;67.49;103125.44;7397624;19;20014;-58
2022/03/20 02:41:14;;;;;;;17.17;9.98;;;;;;;4.44;67.20;103124.69;7396918;19;20127;-58
2022/03/20 02:43:50;;;;;;;18.98;10.55;;;;;;;4.32;67.65;103125.31;7398216;19;20022;-59
2022/03/20 02:46:19;;;;;;;16.83;9.82;;;;;;;4.37;67.74;103117.63;7394621;19;20074;-60
2022/03/20 02:48:49;;;;;;;16.20;9.52;;;;;;;4.29;67.85;103114.00;7394348;19;20543;-60
2022/03/20 02:51:18;;;;;;;16.15;9.50;;;;;;;4.29;67.88;103112.28;7390800;19;20030;-60
2022/03/20 02:53:49;;;;;;;18.10;10.45;;;;;;;4.37;67.50;103114.16;7394172;19;20211;-59
2022/03/20 02:56:18;;;;;;;19.23;10.40;;;;;;;4.24;67.81;103095.78;7394109;19;20018;-58
2022/03/20 02:58:50;;;;;;;17.65;10.52;;;;;;;4.31;67.62;103099.34;7396475;19;20371;-58
2022/03/20 03:01:19;;;;;;;19.20;11.00;;;;;;;4.31;67.40;103108.00;7397253;19;20022;-57
2022/03/20 03:03:48;;;;;;;17.63;10.05;;;;;;;4.21;67.91;103095.69;7396094;19;20503;-57
2022/03/20 03:06:17;;;;;;;17.08;10.45;;;;;;;4.22;67.85;103089.66;7393375;19;20034;-60
2022/03/20 03:11:31;;;;;;;17.77;11.02;;;;;;;4.22;67.58;103084.47;7394221;19;20019;-60
2022/03/20 03:15:18;;;;;;;17.58;10.90;;;;;;;4.19;67.58;103084.41;7395153;19;20034;-60
2022/03/20 03:16:49;;;;;;;18.98;11.95;;;;;;;4.09;67.96;103078.16;7391423;19;20346;-62
2022/03/20 03:19:19;;;;;;;19.65;11.88;;;;;;;4.16;67.69;103084.38;7392695;19;20029;-58
2022/03/20 03:21:47;;;;;;;17.75;11.48;;;;;;;4.13;67.44;103082.56;7392411;19;20024;-60
2022/03/20 03:24:19;;;;;;;21.45;12.27;;;;;;;4.09;67.71;103087.69;7394822;19;20021;-60
2022/03/20 03:26:48;;;;;;;19.38;11.57;;;;;;;4.12;67.77;103078.22;7393635;19;20018;-59
2022/03/20 03:29:17;;;;;;;19.80;12.55;;;;;;;4.14;67.37;103076.56;7395564;19;20099;-60
2022/03/20 03:31:46;;;;;;;23.30;13.10;;;;;;;4.14;66.84;103076.56;7392792;19;20029;-58
2022/03/20 03:36:57;;;;;;;23.70;13.50;;;;;;;4.01;66.98;103068.50;7391846;19;20022;-58
2022/03/20 03:39:28;;;;;;;20.05;13.35;;;;;;;4.02;66.94;103062.47;7391619;19;20497;-54
2022/03/20 03:41:57;;;;;;;22.05;14.13;;;;;;;4.11;66.44;103065.22;7389403;19;20022;-60
2022/03/20 03:44:26;;;;;;;23.52;13.88;;;;;;;4.04;66.52;103066.84;7392249;19;20014;-61
2022/03/20 03:46:57;;;;;;;22.73;13.60;;;;;;;3.98;66.81;103056.34;7390005;19;20048;-59
2022/03/20 03:49:26;;;;;;;23.50;14.20;;;;;;;3.98;66.47;103057.22;7391082;19;20153;-58
2022/03/20 03:51:55;;;;;;;19.95;13.40;;;;;;;4.01;66.50;103048.59;7391977;19;20021;-60
2022/03/20 03:54:24;;;;;;;26.00;13.85;;;;;;;4.15;66.00;103056.66;7392419;19;20375;-61
2022/03/20 03:56:55;;;;;;;24.60;14.13;;;;;;;4.05;66.39;103057.34;7390455;19;20026;-61
2022/03/20 03:59:24;;;;;;;27.90;14.23;;;;;;;4.11;65.89;103052.25;7391442;19;20022;-61
2022/03/20 04:01:53;;;;;;;24.38;13.98;;;;;;;4.05;65.81;103047.81;7394981;19;20014;-62
2022/03/20 04:04:22;;;;;;;21.80;14.52;;;;;;;4.09;65.54;103039.25;7392231;19;20073;-61
2022/03/20 04:06:51;;;;;;;22.35;14.55;;;;;;;4.01;65.81;103038.22;7390450;19;20022;-60
2022/03/20 04:09:20;;;;;;;23.20;14.27;;;;;;;4.01;65.72;103038.22;7391149;19;20457;-60
2022/03/20 04:11:49;;;;;;;23.88;15.15;;;;;;;4.07;65.77;103035.78;7391087;19;20477;-62
2022/03/20 04:14:21;;;;;;;24.13;15.20;;;;;;;4.09;65.48;103030.59;7389824;19;20439;-61
2022/03/20 04:16:50;;;;;;;25.83;15.32;;;;;;;4.09;65.16;103028.88;7389661;19;20097;-60
2022/03/20 04:19:19;;;;;;;22.85;14.80;;;;;;;4.02;64.75;103021.81;7390014;19;20052;-60
2022/03/20 04:21:48;;;;;;;25.42;15.52;;;;;;;4.07;64.77;103008.94;7390955;19;20347;-61
2022/03/20 04:24:17;;;;;;;23.70;15.38;;;;;;;4.13;64.63;103004.75;7391127;19;20041;-59
2022/03/20 04:26:46;;;;;;;23.60;15.40;;;;;;;4.14;63.95;103011.69;7389470;19;20019;-61
2022/03/20 04:29:15;;;;;;;25.13;16.25;;;;;;;4.12;64.40;103012.50;7390349;19;20025;-61
2022/03/20 04:31:46;;;;;;;27.65;16.23;;;;;;;4.11;64.25;102997.75;7391340;19;20018;-61
2022/03/20 04:34:16;;;;;;;27.73;16.10;;;;;;;4.12;63.81;102979.63;7391662;19;20015;-62
2022/03/20 04:36:46;;;;;;;25.35;15.82;;;;;;;4.13;63.65;102967.56;7389120;19;20022;-61
2022/03/20 04:39:14;;;;;;;27.90;16.35;;;;;;;4.07;63.62;102960.53;7390041;19;20123;-61
2022/03/20 04:41:46;;;;;;;22.77;15.90;;;;;;;4.13;63.36;102973.59;7390123;19;20019;-61
2022/03/20 04:44:15;;;;;;;24.38;15.88;;;;;;;4.12;63.03;102976.16;7391517;19;20014;-61
2022/03/20 04:46:47;;;;;;;25.58;16.25;;;;;;;4.12;62.99;102974.44;7389254;19;20509;-61
2022/03/20 05:00:14;;;;;;;24.27;16.48;;;;;;;4.19;62.07;102971.97;7389369;19;20022;-61
2022/03/20 05:02:46;;;;;;;28.23;17.13;;;;;;;4.25;61.54;102980.72;7387362;19;20020;-61
2022/03/20 05:05:14;;;;;;;27.73;17.02;;;;;;;4.30;61.64;102973.03;7390870;19;20114;-62
2022/03/20 05:07:44;;;;;;;27.25;16.88;;;;;;;4.24;61.10;102967.72;7390776;19;20026;-61
2022/03/20 05:15:36;;;;;;;25.08;16.63;;;;;;;4.31;61.08;102949.69;7390193;19;20500;-61
2022/03/20 05:18:07;;;;;;;26.83;16.60;;;;;;;4.20;61.20;102951.25;7390015;19;20003;-60
2022/03/20 05:20:36;;;;;;;25.48;17.27;;;;;;;4.24;61.05;102950.44;7389335;19;20015;-58
2022/03/20 05:23:05;;;;;;;25.27;16.63;;;;;;;4.22;61.04;102951.25;7388603;19;20297;-58
2022/03/20 05:25:34;;;;;;;27.75;17.25;;;;;;;4.18;61.00;102955.50;7388633;19;20097;-61
2022/03/20 05:28:04;;;;;;;27.42;17.77;;;;;;;4.08;61.01;102946.69;7389319;19;20022;-61
2022/03/20 05:30:34;;;;;;;27.25;17.25;;;;;;;4.16;60.72;102944.25;7388359;19;20015;-61
2022/03/20 05:33:03;;;;;;;28.80;17.67;;;;;;;4.17;61.06;102951.19;7388493;19;20022;-61
2022/03/20 05:35:34;;;;;;;27.58;17.75;;;;;;;4.29;60.48;102934.94;7386902;19;20007;-60
2022/03/20 05:38:03;;;;;;;25.30;16.90;;;;;;;4.16;60.51;102952.03;7389433;19;20037;-59
2022/03/20 05:40:32;;;;;;;27.63;16.98;;;;;;;4.11;60.93;102944.19;7388047;19;20010;-60
2022/03/20 05:43:01;;;;;;;25.52;17.15;;;;;;;4.15;60.55;102947.69;7387589;19;20015;-60
2022/03/20 05:45:31;;;;;;;29.33;18.00;;;;;;;4.12;60.13;102956.28;7388111;19;20014;-60
2022/03/20 05:48:00;;;;;;;26.45;17.08;;;;;;;4.04;60.43;102944.91;7389650;19;20014;-58
2022/03/20 05:50:29;;;;;;;27.67;17.75;;;;;;;3.97;60.69;102941.34;7389790;19;20014;-58
2022/03/20 05:53:01;;;;;;;29.70;18.08;;;;;;;4.02;60.33;102938.81;7391402;19;20078;-60
2022/03/20 05:58:13;;;;;;;25.85;16.80;;;;;;;4.12;60.05;102943.31;7391061;19;20119;-61
2022/03/20 06:00:45;;;;;;;28.95;18.10;;;;;;;4.01;60.24;102942.25;7390977;19;20011;-60
2022/03/20 06:03:15;;;;;;;30.70;17.73;;;;;;;4.10;60.23;102933.78;7387816;19;19999;-60
2022/03/20 06:05:43;;;;;;;29.17;17.88;;;;;;;4.01;59.60;102931.88;7397034;19;20446;-61
2022/03/20 06:08:15;;;;;;;25.92;17.90;;;;;;;3.94;59.97;102930.91;7398739;19;20042;-60
2022/03/20 06:10:44;;;;;;;28.45;17.85;;;;;;;4.05;59.82;102936.25;7397771;19;20083;-55
2022/03/20 06:13:13;;;;;;;29.42;18.48;;;;;;;4.11;59.69;102935.50;7398870;19;20126;-58
2022/03/20 06:15:46;;;;;;;29.58;17.90;;;;;;;4.20;59.21;102939.97;7397892;19;20026;-55
2022/03/20 06:18:15;;;;;;;28.10;18.33;;;;;;;4.17;59.28;102930.44;7391986;19;20093;-61
2022/03/20 06:20:45;;;;;;;29.25;17.77;;;;;;;4.09;59.57;102922.50;7394315;19;20349;-62
2022/03/20 06:23:17;;;;;;;28.73;17.60;;;;;;;4.05;59.30;102928.47;7393257;19;20018;-61
2022/03/20 06:25:46;;;;;;;28.25;18.23;;;;;;;4.08;59.54;102917.28;7392859;19;20126;-61
2022/03/20 06:28:15;;;;;;;32.58;19.00;;;;;;;4.10;59.63;102913.88;7395170;19;20014;-63
2022/03/20 06:30:45;;;;;;;29.55;18.30;;;;;;;4.11;59.04;102909.56;7394278;19;20011;-62
2022/03/20 06:33:15;;;;;;;27.83;18.17;;;;;;;4.18;58.71;102906.22;7414165;19;20518;-60
2022/03/20 06:35:44;;;;;;;33.88;18.10;;;;;;;4.29;58.58;102881.31;7400342;19;20086;-61
2022/03/20 06:38:13;;;;;;;29.00;19.08;;;;;;;4.31;58.30;102886.53;7394966;19;20015;-61
2022/03/20 06:40:44;;;;;;;29.38;18.23;;;;;;;4.15;58.59;102888.00;7393399;19;20022;-61
2022/03/20 06:43:13;;;;;;;33.30;18.48;;;;;;;4.22;58.30;102881.19;7393403;19;20019;-62
2022/03/20 06:45:43;;;;;;;27.40;18.17;;;;;;;4.20;57.83;102877.69;7393722;19;20025;-62
2022/03/20 06:48:12;;;;;;;28.48;18.42;;;;;;;4.21;57.40;102874.25;7392139;19;20014;-61
2022/03/20 06:50:41;;;;;;;32.08;19.13;;;;;;;4.21;57.17;102863.88;7393413;19;20019;-62
2022/03/20 06:53:11;;;;;;;26.65;18.20;;;;;;;4.21;56.76;102862.16;7394738;19;20383;-61
2022/03/20 06:55:41;;;;;;;28.92;18.48;;;;;;;4.33;56.27;102853.69;7392767;19;20527;-61
2022/03/20 06:58:13;;;;;;;29.90;18.08;;;;;;;4.33;56.12;102854.56;7393164;19;20018;-62
2022/03/20 07:00:42;;;;;;;28.70;18.10;;;;;;;4.24;56.07;102848.34;7395655;19;20010;-62
2022/03/20 07:03:11;;;;;;;31.58;18.48;;;;;;;4.23;56.09;102839.69;7391341;19;20007;-62
2022/03/20 07:05:41;;;;;;;29.85;19.17;;;;;;;4.27;55.89;102831.13;7393063;19;20022;-63
2022/03/20 07:08:11;;;;;;;31.65;19.52;;;;;;;4.20;55.44;102833.59;7394882;19;20024;-62
2022/03/20 07:10:42;;;;;;;30.95;19.58;;;;;;;4.18;55.46;102846.53;7394572;19;20482;-63
2022/03/20 07:15:58;;;;;;;28.08;18.27;;;;;;;4.39;54.99;102856.38;7391681;19;20090;-61
2022/03/20 07:18:27;;;;;;;;;;;;;;;4.39;54.59;102866.75;7395560;19;20021;-60
2022/03/20 07:20:58;;;;;;;29.27;18.63;;;;;;;4.43;54.51;102862.50;7393197;19;20336;-62
2022/03/20 07:23:27;;;;;;;35.78;20.15;;;;;;;4.47;53.83;102872.94;7392451;19;20018;-61
2022/03/20 07:31:22;;;;;;;33.53;20.90;;;;;;;4.64;54.10;102848.91;7392340;19;20275;-63
2022/03/20 07:33:50;;;;;;;30.30;20.08;;;;;;;4.54;53.72;102853.09;7392652;19;20022;-62
2022/03/20 07:36:20;;;;;;;31.63;19.02;;;;;;;4.68;54.10;102843.81;7391078;19;20063;-62
2022/03/20 07:38:50;;;;;;;28.92;19.65;;;;;;;4.69;53.92;102844.66;7392748;19;20010;-62
2022/03/20 07:41:19;;;;;;;28.10;19.48;;;;;;;4.78;53.80;102836.97;7392277;19;20021;-59
2022/03/20 07:43:51;;;;;;;29.77;19.23;;;;;;;4.86;52.92;102826.69;7390733;19;20048;-61
2022/03/20 07:46:20;;;;;;;32.30;20.05;;;;;;;4.78;53.06;102823.13;7391153;19;20056;-62
2022/03/20 07:48:50;;;;;;;34.22;20.23;;;;;;;4.72;53.04;102816.13;7392646;19;20046;-61
2022/03/20 07:51:20;;;;;;;32.67;20.05;;;;;;;4.73;52.75;102823.06;7392251;19;20190;-62
2022/03/20 07:53:50;;;;;;;33.22;21.05;;;;;;;4.79;52.54;102822.28;7392483;19;20514;-62
2022/03/20 07:56:22;;;;;;;30.90;20.67;;;;;;;4.82;52.03;102812.78;7391355;19;20049;-62
2022/03/20 07:58:54;;;;;;;30.88;20.85;;;;;;;4.91;51.97;102808.56;7390768;19;20002;-62
2022/03/20 08:01:23;;;;;;;31.25;20.73;;;;;;;4.98;51.63;102797.38;7388093;19;20055;-63
2022/03/20 08:03:52;;;;;;;29.92;20.05;;;;;;;4.94;51.72;102801.69;7389234;19;20015;-63
2022/03/20 08:06:21;;;;;;;32.08;21.30;;;;;;;4.85;51.38;102817.16;7389960;19;20018;-63
2022/03/20 08:08:50;;;;;;;30.80;20.50;;;;;;;4.91;51.51;102813.75;7391185;19;20011;-63
2022/03/20 08:11:19;;;;;;;31.83;20.75;;;;;;;4.95;51.14;102797.34;7390538;19;20664;-63
2022/03/20 08:13:47;;;;;;;32.50;21.35;;;;;;;4.91;51.48;102767.84;7393208;19;20017;-62
2022/03/20 08:16:21;;;;;;;30.30;20.02;;;;;;;4.93;51.12;102758.38;7392229;19;20614;-63
2022/03/20 08:18:51;;;;;;;32.95;20.92;;;;;;;4.94;50.82;102754.94;7391947;19;20041;-64
2022/03/20 08:21:20;;;;;;;33.15;20.13;;;;;;;5.13;50.76;102747.28;7391325;19;20014;-62
2022/03/20 08:23:49;;;;;;;33.85;21.08;;;;;;;5.17;50.27;102742.16;7389981;19;20498;-62
2022/03/20 08:26:19;;;;;;;38.00;22.15;;;;;;;5.24;49.63;102747.41;7390342;19;20018;-61
2022/03/20 08:28:48;;;;;;;31.58;21.20;;;;;;;5.31;49.19;102741.41;7391667;19;20015;-62
2022/03/20 08:31:20;;;;;;;35.70;22.13;;;;;;;5.13;49.61;102731.69;7391304;19;20018;-61
2022/03/20 08:33:49;;;;;;;33.77;22.07;;;;;;;5.22;49.27;102726.59;7392776;19;20479;-61
2022/03/20 08:36:18;;;;;;;34.17;22.00;;;;;;;5.36;49.43;102725.00;7419286;19;20043;-61
2022/03/20 08:38:48;;;;;;;35.67;21.80;;;;;;;5.42;48.32;102718.09;7393768;19;20430;-63
2022/03/20 08:41:17;;;;;;;38.45;22.52;;;;;;;5.54;48.50;102703.47;7391012;19;20514;-63
2022/03/20 08:43:46;;;;;;;33.70;21.55;;;;;;;5.68;47.80;102705.28;7391027;19;20010;-60
2022/03/20 08:46:19;;;;;;;36.25;22.55;;;;;;;5.60;47.61;102709.56;7389716;19;20041;-60
2022/03/20 08:48:48;;;;;;;33.67;22.45;;;;;;;5.70;47.69;102708.75;7390310;19;20025;-63
2022/03/20 08:51:17;;;;;;;39.33;21.67;;;;;;;5.76;47.88;102698.41;7389980;19;20431;-62
2022/03/20 08:53:46;;;;;;;31.95;22.17;;;;;;;5.72;47.70;102692.31;7389970;19;20048;-62
2022/03/20 08:56:15;;;;;;;33.78;22.52;;;;;;;5.79;47.55;102690.63;7389466;19;20029;-61
2022/03/20 08:58:46;;;;;;;37.33;22.98;;;;;;;5.76;47.14;102694.91;7390311;19;20368;-62
2022/03/20 09:01:15;;;;;;;35.30;21.75;;;;;;;5.80;47.27;102694.97;7391171;19;20074;-62
2022/03/20 09:03:49;;;;;;;32.53;22.35;;;;;;;5.92;47.19;102681.16;7388239;19;20015;-62
2022/03/20 09:06:19;;;;;;;36.13;23.65;;;;;;;5.98;46.76;102682.94;7388513;19;20014;-62
2022/03/20 09:08:47;;;;;;;36.13;23.88;;;;;;;6.03;46.43;102683.81;7389137;19;20019;-60
2022/03/20 09:11:16;;;;;;;36.85;22.75;;;;;;;5.94;46.73;102686.38;7388719;19;20018;-62
2022/03/20 09:13:45;;;;;;;35.47;23.63;;;;;;;5.97;45.90;102688.97;7389526;19;20018;-62
2022/03/20 09:19:04;;;;;;;36.55;22.08;;;;;;;6.05;46.04;102680.38;7390040;19;20228;-63
2022/03/20 09:21:34;;;;;;;33.55;22.33;;;;;;;6.17;45.80;102671.75;7388981;19;20018;-63
2022/03/20 09:24:04;;;;;;;37.33;24.40;;;;;;;6.22;45.26;102669.19;7388408;19;20344;-63
2022/03/20 09:26:33;;;;;;;34.65;23.02;;;;;;;6.30;45.76;102682.22;7388305;19;20022;-61
2022/03/20 09:29:04;;;;;;;36.20;23.20;;;;;;;6.37;45.04;102679.63;7389992;19;20019;-62
2022/03/20 09:31:34;;;;;;;35.45;23.65;;;;;;;6.32;45.47;102672.66;7388754;19;20023;-63
2022/03/20 09:34:05;;;;;;;35.75;23.27;;;;;;;6.39;45.16;102670.09;7389942;19;20014;-63
2022/03/20 09:36:36;;;;;;;35.22;23.42;;;;;;;6.40;45.23;102682.25;7387791;19;20030;-63
2022/03/20 09:39:06;;;;;;;34.90;23.10;;;;;;;6.53;45.44;102683.16;7387785;19;20018;-63
2022/03/20 09:41:35;;;;;;;38.60;24.08;;;;;;;6.51;44.78;102673.59;7388673;19;20014;-63
2022/03/20 09:44:08;;;;;;;41.00;24.00;;;;;;;6.83;44.58;102667.59;7390203;19;20014;-62
2022/03/20 09:46:38;;;;;;;36.15;23.08;;;;;;;7.25;43.85;102664.13;7388770;19;20018;-62
2022/03/20 09:49:09;;;;;;;34.45;24.80;;;;;;;7.44;43.20;102656.28;7390757;19;20025;-62
2022/03/20 09:51:41;;;;;;;28.23;17.92;;;;;;;7.49;43.28;102643.22;7391199;19;20022;-63
2022/03/20 09:54:14;;;;;;;37.38;25.13;;;;;;;7.77;43.14;102646.66;7391040;19;20021;-63
2022/03/20 09:56:43;;;;;;;;;;;;;;;8.05;41.61;102646.53;7389046;19;20022;-64
2022/03/20 09:59:12;;;;;;;36.25;24.92;;;;;;;7.97;41.19;102659.63;7388417;19;19926;-63
2022/03/20 10:01:41;;;;;;;34.88;23.55;;;;;;;7.79;41.61;102664.03;7391252;19;20011;-62
2022/03/20 10:04:14;;;;;;;35.35;24.30;;;;;;;7.73;42.67;102642.31;7386864;19;20502;-62
2022/03/20 10:06:45;;;;;;;38.53;24.70;;;;;;;7.85;42.18;102651.81;7386772;19;20022;-63
2022/03/20 10:09:16;;;;;;;38.45;25.15;;;;;;;8.02;41.57;102651.78;7387632;19;20085;-61
2022/03/20 10:11:51;;;;;;;37.30;24.10;;;;;;;7.95;41.34;102643.97;7388825;19;20015;-63
2022/03/20 10:14:22;;;;;;;37.28;24.33;;;;;;;8.01;41.54;102644.81;7387418;19;20015;-63
2022/03/20 10:16:55;;;;;;;36.35;24.65;;;;;;;8.13;41.84;102653.44;7386119;19;20026;-63
2022/03/20 10:19:34;;;;;;;39.17;24.65;;;;;;;8.70;41.73;102652.31;7386596;19;20029;-63
2022/03/20 10:22:06;;;;;;;39.05;25.50;;;;;;;8.77;40.34;102643.56;7387763;19;20014;-62
2022/03/20 10:24:36;;;;;;;40.80;25.40;;;;;;;8.51;40.65;102645.47;7386506;19;20108;-63
2022/03/20 10:27:08;;;;;;;35.88;25.00;;;;;;;8.45;40.84;102633.31;7385851;19;20011;-61
2022/03/20 10:29:48;;;;;;;38.03;24.92;;;;;;;8.62;40.88;102636.66;7387549;19;20015;-62
2022/03/20 10:32:17;;;;;;;35.53;24.98;;;;;;;8.82;40.57;102640.91;7387828;19;20019;-63
2022/03/20 10:34:53;;;;;;;37.40;24.90;;;;;;;8.79;40.82;102649.63;7387217;19;20022;-62
2022/03/20 10:37:25;;;;;;;36.75;25.65;;;;;;;8.69;40.72;102653.19;7410311;19;20021;-61
2022/03/20 10:40:10;;;;;;;33.90;24.77;;;;;;;8.58;41.11;102645.44;7389179;19;20022;-62
2022/03/20 10:42:39;;;;;;;37.60;25.67;;;;;;;8.60;41.29;102661.09;7387108;19;20021;-62
2022/03/20 10:45:10;;;;;;;39.97;27.40;;;;;;;8.24;41.71;102655.16;7386813;19;20015;-62
2022/03/20 10:47:39;;;;;;;39.38;26.38;;;;;;;8.25;41.83;102647.31;7387328;19;20479;-63
2022/03/20 10:50:12;;;;;;;43.60;27.73;;;;;;;8.19;41.78;102660.41;7385752;19;20061;-62
2022/03/20 10:52:41;;;;;;;;;;;;;;;8.19;42.19;102663.00;7394169;19;20022;-62
2022/03/20 10:55:12;;;;;;;38.65;26.90;;;;;;;8.07;41.97;102660.47;7394181;19;19933;-62
2022/03/20 10:57:42;;;;;;;40.05;26.90;;;;;;;8.05;41.70;102647.41;7394110;19;20064;-62
2022/03/20 11:00:14;;;;;;;36.22;25.75;;;;;;;8.10;42.38;102653.47;7392777;19;20010;-62
2022/03/20 11:02:44;;;;;;;38.50;25.60;;;;;;;8.08;41.85;102654.34;7393855;19;20025;-63
2022/03/20 11:05:15;;;;;;;38.60;26.55;;;;;;;7.90;42.07;102645.72;7391336;19;20355;-62
2022/03/20 11:07:44;;;;;;;40.50;26.13;;;;;;;7.93;42.02;102637.88;7393795;19;20017;-63
2022/03/20 11:10:17;;;;;;;41.55;27.42;;;;;;;7.97;42.04;102644.81;7393322;19;20026;-63
2022/03/20 11:12:49;;;;;;;42.72;27.85;;;;;;;7.87;42.30;102642.28;7394179;19;20402;-63
2022/03/20 11:15:20;;;;;;;39.63;27.52;;;;;;;7.77;42.44;102636.19;7392650;19;20419;-63
2022/03/20 11:17:51;;;;;;;38.50;26.60;;;;;;;7.76;42.64;102645.75;7393227;19;20018;-62
2022/03/20 11:20:26;;;;;;;43.22;28.38;;;;;;;7.75;42.55;102651.88;7392774;19;20018;-62
2022/03/20 11:22:59;;;;;;;40.67;26.92;;;;;;;7.76;42.86;102644.91;7392996;19;20019;-61
2022/03/20 11:25:30;;;;;;;42.35;28.08;;;;;;;7.91;42.76;102650.06;7390863;19;20018;-62
2022/03/20 11:28:03;;;;;;;36.78;25.67;;;;;;;7.91;43.13;102633.56;7391303;19;20018;-62
2022/03/20 11:30:34;;;;;;;41.75;27.42;;;;;;;7.99;42.88;102638.72;7392416;19;20018;-63
2022/03/20 11:33:05;;;;;;;42.47;27.63;;;;;;;7.94;42.70;102639.63;7392464;19;20014;-63
2022/03/20 11:35:38;;;;;;;40.38;28.73;;;;;;;7.94;43.06;102636.16;7392071;19;20026;-62
2022/03/20 11:38:18;;;;;;;41.70;27.63;;;;;;;7.97;43.24;102646.56;7395105;19;20029;-65
2022/03/20 11:41:10;;;;;;;41.78;27.75;;;;;;;8.06;43.27;102649.13;7392091;19;20025;-61
2022/03/20 11:43:40;;;;;;;40.80;27.60;;;;;;;8.08;43.46;102654.34;7392026;19;20014;-62
2022/03/20 11:46:28;;;;;;;43.58;29.52;;;;;;;7.88;44.98;102651.81;7391299;19;20033;-62
2022/03/20 11:49:24;;;;;;;43.83;29.40;;;;;;;7.91;45.10;102651.84;7392127;19;20090;-61
2022/03/20 11:52:02;;;;;;;41.95;28.65;;;;;;;7.91;45.55;102649.22;7392263;19;20025;-61
2022/03/20 11:54:48;;;;;;;43.72;29.42;;;;;;;8.01;44.95;102635.25;7392151;19;20014;-62
2022/03/20 11:57:45;;;;;;;42.22;29.27;;;;;;;8.12;44.63;102643.03;7393018;19;20011;-63
2022/03/20 12:00:19;;;;;;;40.70;27.85;;;;;;;8.19;44.65;102638.66;7390772;19;20019;-62
2022/03/20 12:02:53;;;;;;;43.25;28.80;;;;;;;8.24;44.12;102640.34;7389704;19;20018;-63
2022/03/20 12:05:34;;;;;;;43.28;29.48;;;;;;;8.25;43.64;102629.03;7389497;19;20029;-64
2022/03/20 12:08:19;;;;;;;45.45;28.05;;;;;;;8.19;43.90;102636.88;7391376;19;20022;-63
2022/03/20 12:11:00;;;;;;;40.08;28.20;;;;;;;8.23;44.03;102622.09;7390635;19;20058;-63